sensor_id;sensor_type;location;lat;lon;timestamp;P1;durP1;ratioP1;P2;durP2;ratioP2
4106;SDS011;21906;50.812;7.132;2024-01-30T00:01:49;15.90;;;11.57;;
4106;SDS011;21906;50.812;7.132;2024-01-30T00:04:15;16.43;;;12.37;;
4106;SDS011;21906;50.812;7.132;2024-01-30T00:06:42;16.70;;;11.80;;
4106;SDS011;21906;50.812;7.132;2024-01-30T00:09:08;12.60;;;11.20;;
4106;SDS011;21906;50.812;7.132;2024-01-30T00:11:35;15.73;;;11.47;;
4106;SDS011;21906;50.812;7.132;2024-01-30T00:14:01;15.13;;;11.93;;
4106;SDS011;21906;50.812;7.132;2024-01-30T00:16:27;13.07;;;11.43;;
4106;SDS011;21906;50.812;7.132;2024-01-30T00:18:53;13.67;;;11.10;;
4106;SDS011;21906;50.812;7.132;2024-01-30T00:21:20;15.40;;;12.00;;
4106;SDS011;21906;50.812;7.132;2024-01-30T00:23:46;16.60;;;11.30;;
4106;SDS011;21906;50.812;7.132;2024-01-30T00:26:12;15.27;;;11.40;;
4106;SDS011;21906;50.812;7.132;2024-01-30T00:28:40;13.67;;;11.17;;
4106;SDS011;21906;50.812;7.132;2024-01-30T00:31:06;14.07;;;11.63;;
4106;SDS011;21906;50.812;7.132;2024-01-30T00:33:32;14.37;;;11.10;;
4106;SDS011;21906;50.812;7.132;2024-01-30T00:35:58;14.73;;;11.30;;
4106;SDS011;21906;50.812;7.132;2024-01-30T00:38:24;13.87;;;11.00;;
4106;SDS011;21906;50.812;7.132;2024-01-30T00:40:50;17.10;;;11.13;;
4106;SDS011;21906;50.812;7.132;2024-01-30T00:43:16;13.60;;;11.27;;
4106;SDS011;21906;50.812;7.132;2024-01-30T00:45:43;13.60;;;11.73;;
4106;SDS011;21906;50.812;7.132;2024-01-30T00:48:09;13.00;;;10.90;;
4106;SDS011;21906;50.812;7.132;2024-01-30T00:50:37;15.67;;;10.90;;
4106;SDS011;21906;50.812;7.132;2024-01-30T00:53:02;13.40;;;11.03;;
4106;SDS011;21906;50.812;7.132;2024-01-30T00:55:28;15.20;;;11.67;;
4106;SDS011;21906;50.812;7.132;2024-01-30T00:57:54;13.33;;;10.90;;
4106;SDS011;21906;50.812;7.132;2024-01-30T01:00:19;12.50;;;11.03;;
4106;SDS011;21906;50.812;7.132;2024-01-30T01:02:46;15.63;;;11.43;;
4106;SDS011;21906;50.812;7.132;2024-01-30T01:05:11;16.70;;;11.00;;
4106;SDS011;21906;50.812;7.132;2024-01-30T01:07:37;14.30;;;11.03;;
4106;SDS011;21906;50.812;7.132;2024-01-30T01:10:03;14.30;;;11.07;;
4106;SDS011;21906;50.812;7.132;2024-01-30T01:12:29;13.60;;;10.30;;
4106;SDS011;21906;50.812;7.132;2024-01-30T01:14:55;13.47;;;10.83;;
4106;SDS011;21906;50.812;7.132;2024-01-30T01:17:20;13.10;;;10.20;;
4106;SDS011;21906;50.812;7.132;2024-01-30T01:19:46;15.47;;;10.30;;
4106;SDS011;21906;50.812;7.132;2024-01-30T01:22:12;18.20;;;11.90;;
4106;SDS011;21906;50.812;7.132;2024-01-30T01:24:37;11.73;;;10.53;;
4106;SDS011;21906;50.812;7.132;2024-01-30T01:27:05;12.80;;;10.90;;
4106;SDS011;21906;50.812;7.132;2024-01-30T01:29:32;12.13;;;10.70;;
4106;SDS011;21906;50.812;7.132;2024-01-30T01:31:58;14.73;;;10.90;;
4106;SDS011;21906;50.812;7.132;2024-01-30T01:34:24;14.00;;;10.80;;
4106;SDS011;21906;50.812;7.132;2024-01-30T01:36:50;13.70;;;10.70;;
4106;SDS011;21906;50.812;7.132;2024-01-30T01:39:16;15.27;;;10.87;;
4106;SDS011;21906;50.812;7.132;2024-01-30T01:41:42;13.53;;;10.60;;
4106;SDS011;21906;50.812;7.132;2024-01-30T01:44:08;12.63;;;10.23;;
4106;SDS011;21906;50.812;7.132;2024-01-30T01:46:34;14.20;;;11.63;;
4106;SDS011;21906;50.812;7.132;2024-01-30T01:49:00;14.20;;;11.37;;
4106;SDS011;21906;50.812;7.132;2024-01-30T01:51:30;13.60;;;11.33;;
4106;SDS011;21906;50.812;7.132;2024-01-30T01:53:58;15.90;;;11.57;;
4106;SDS011;21906;50.812;7.132;2024-01-30T01:56:30;13.30;;;10.97;;
4106;SDS011;21906;50.812;7.132;2024-01-30T01:58:59;14.17;;;10.50;;
4106;SDS011;21906;50.812;7.132;2024-01-30T02:01:29;16.10;;;10.57;;
4106;SDS011;21906;50.812;7.132;2024-01-30T02:03:57;12.73;;;10.70;;
4106;SDS011;21906;50.812;7.132;2024-01-30T02:06:23;15.60;;;10.60;;
4106;SDS011;21906;50.812;7.132;2024-01-30T02:08:49;12.90;;;10.40;;
4106;SDS011;21906;50.812;7.132;2024-01-30T02:11:15;16.20;;;11.67;;
4106;SDS011;21906;50.812;7.132;2024-01-30T02:13:41;15.57;;;10.83;;
4106;SDS011;21906;50.812;7.132;2024-01-30T02:16:07;13.30;;;10.43;;
4106;SDS011;21906;50.812;7.132;2024-01-30T02:18:33;12.87;;;10.23;;
4106;SDS011;21906;50.812;7.132;2024-01-30T02:20:59;13.00;;;11.50;;
4106;SDS011;21906;50.812;7.132;2024-01-30T02:23:32;13.70;;;10.80;;
4106;SDS011;21906;50.812;7.132;2024-01-30T02:25:59;13.80;;;9.80;;
4106;SDS011;21906;50.812;7.132;2024-01-30T02:28:25;13.93;;;11.97;;
4106;SDS011;21906;50.812;7.132;2024-01-30T02:30:51;11.10;;;9.50;;
4106;SDS011;21906;50.812;7.132;2024-01-30T02:33:16;13.40;;;10.77;;
4106;SDS011;21906;50.812;7.132;2024-01-30T02:35:42;13.10;;;10.83;;
4106;SDS011;21906;50.812;7.132;2024-01-30T02:38:08;15.43;;;10.40;;
4106;SDS011;21906;50.812;7.132;2024-01-30T02:40:33;11.43;;;9.97;;
4106;SDS011;21906;50.812;7.132;2024-01-30T02:42:59;11.00;;;9.80;;
4106;SDS011;21906;50.812;7.132;2024-01-30T02:45:26;11.80;;;9.90;;
4106;SDS011;21906;50.812;7.132;2024-01-30T02:47:52;12.27;;;10.27;;
4106;SDS011;21906;50.812;7.132;2024-01-30T02:50:17;12.13;;;9.43;;
4106;SDS011;21906;50.812;7.132;2024-01-30T02:52:43;14.33;;;10.40;;
4106;SDS011;21906;50.812;7.132;2024-01-30T02:55:09;16.57;;;10.73;;
4106;SDS011;21906;50.812;7.132;2024-01-30T02:57:35;11.57;;;10.03;;
4106;SDS011;21906;50.812;7.132;2024-01-30T03:00:00;14.87;;;10.20;;
4106;SDS011;21906;50.812;7.132;2024-01-30T03:02:26;12.80;;;11.33;;
4106;SDS011;21906;50.812;7.132;2024-01-30T03:04:52;16.37;;;10.10;;
4106;SDS011;21906;50.812;7.132;2024-01-30T03:07:17;12.23;;;10.60;;
4106;SDS011;21906;50.812;7.132;2024-01-30T03:09:43;14.00;;;10.93;;
4106;SDS011;21906;50.812;7.132;2024-01-30T03:12:11;12.27;;;10.17;;
4106;SDS011;21906;50.812;7.132;2024-01-30T03:14:37;11.93;;;10.33;;
4106;SDS011;21906;50.812;7.132;2024-01-30T03:17:03;13.97;;;10.20;;
4106;SDS011;21906;50.812;7.132;2024-01-30T03:19:28;14.47;;;10.60;;
4106;SDS011;21906;50.812;7.132;2024-01-30T03:21:54;11.73;;;10.23;;
4106;SDS011;21906;50.812;7.132;2024-01-30T03:24:20;12.80;;;10.73;;
4106;SDS011;21906;50.812;7.132;2024-01-30T03:26:45;11.53;;;9.67;;
4106;SDS011;21906;50.812;7.132;2024-01-30T03:29:11;10.87;;;9.73;;
4106;SDS011;21906;50.812;7.132;2024-01-30T03:31:37;11.77;;;10.00;;
4106;SDS011;21906;50.812;7.132;2024-01-30T03:34:04;11.07;;;9.90;;
4106;SDS011;21906;50.812;7.132;2024-01-30T03:36:29;11.73;;;10.23;;
4106;SDS011;21906;50.812;7.132;2024-01-30T03:38:57;13.50;;;9.60;;
4106;SDS011;21906;50.812;7.132;2024-01-30T03:41:23;13.57;;;9.60;;
4106;SDS011;21906;50.812;7.132;2024-01-30T03:43:49;12.00;;;10.13;;
4106;SDS011;21906;50.812;7.132;2024-01-30T03:46:15;10.93;;;9.30;;
4106;SDS011;21906;50.812;7.132;2024-01-30T03:48:41;13.20;;;9.83;;
4106;SDS011;21906;50.812;7.132;2024-01-30T03:51:06;15.30;;;10.07;;
4106;SDS011;21906;50.812;7.132;2024-01-30T03:53:32;14.20;;;10.57;;
4106;SDS011;21906;50.812;7.132;2024-01-30T03:55:58;11.47;;;9.90;;
4106;SDS011;21906;50.812;7.132;2024-01-30T03:58:23;12.00;;;10.50;;
4106;SDS011;21906;50.812;7.132;2024-01-30T04:00:49;13.93;;;10.00;;
4106;SDS011;21906;50.812;7.132;2024-01-30T04:03:15;14.20;;;10.07;;
4106;SDS011;21906;50.812;7.132;2024-01-30T04:05:41;12.03;;;9.53;;
4106;SDS011;21906;50.812;7.132;2024-01-30T04:08:07;15.50;;;10.50;;
4106;SDS011;21906;50.812;7.132;2024-01-30T04:10:33;13.40;;;10.70;;
4106;SDS011;21906;50.812;7.132;2024-01-30T04:12:59;12.60;;;10.10;;
4106;SDS011;21906;50.812;7.132;2024-01-30T04:15:25;16.00;;;10.17;;
4106;SDS011;21906;50.812;7.132;2024-01-30T04:17:51;14.50;;;10.87;;
4106;SDS011;21906;50.812;7.132;2024-01-30T04:20:17;14.70;;;10.60;;
4106;SDS011;21906;50.812;7.132;2024-01-30T04:22:46;12.63;;;9.87;;
4106;SDS011;21906;50.812;7.132;2024-01-30T04:25:12;13.50;;;10.20;;
4106;SDS011;21906;50.812;7.132;2024-01-30T04:27:38;11.70;;;10.07;;
4106;SDS011;21906;50.812;7.132;2024-01-30T04:30:04;14.10;;;10.57;;
4106;SDS011;21906;50.812;7.132;2024-01-30T04:32:31;13.60;;;10.00;;
4106;SDS011;21906;50.812;7.132;2024-01-30T04:34:57;11.87;;;9.90;;
4106;SDS011;21906;50.812;7.132;2024-01-30T04:37:22;11.47;;;10.30;;
4106;SDS011;21906;50.812;7.132;2024-01-30T04:39:48;12.80;;;9.60;;
4106;SDS011;21906;50.812;7.132;2024-01-30T04:42:14;12.53;;;10.07;;
4106;SDS011;21906;50.812;7.132;2024-01-30T04:44:40;12.37;;;10.07;;
4106;SDS011;21906;50.812;7.132;2024-01-30T04:47:05;12.03;;;10.30;;
4106;SDS011;21906;50.812;7.132;2024-01-30T04:49:33;12.83;;;10.27;;
4106;SDS011;21906;50.812;7.132;2024-01-30T04:51:59;12.43;;;10.90;;
4106;SDS011;21906;50.812;7.132;2024-01-30T04:54:25;11.77;;;9.80;;
4106;SDS011;21906;50.812;7.132;2024-01-30T04:56:51;12.90;;;10.37;;
4106;SDS011;21906;50.812;7.132;2024-01-30T04:59:16;20.30;;;11.40;;
4106;SDS011;21906;50.812;7.132;2024-01-30T05:01:42;11.53;;;10.20;;
4106;SDS011;21906;50.812;7.132;2024-01-30T05:04:09;12.50;;;9.90;;
4106;SDS011;21906;50.812;7.132;2024-01-30T05:06:36;17.17;;;10.10;;
4106;SDS011;21906;50.812;7.132;2024-01-30T05:09:02;14.53;;;10.57;;
4106;SDS011;21906;50.812;7.132;2024-01-30T05:11:29;14.53;;;10.40;;
4106;SDS011;21906;50.812;7.132;2024-01-30T05:13:55;15.17;;;10.13;;
4106;SDS011;21906;50.812;7.132;2024-01-30T05:16:20;14.27;;;10.60;;
4106;SDS011;21906;50.812;7.132;2024-01-30T05:18:46;12.60;;;10.30;;
4106;SDS011;21906;50.812;7.132;2024-01-30T05:21:12;17.03;;;11.10;;
4106;SDS011;21906;50.812;7.132;2024-01-30T05:23:37;12.73;;;10.80;;
4106;SDS011;21906;50.812;7.132;2024-01-30T05:26:03;14.70;;;9.70;;
4106;SDS011;21906;50.812;7.132;2024-01-30T05:28:29;11.57;;;9.57;;
4106;SDS011;21906;50.812;7.132;2024-01-30T05:30:58;13.00;;;11.27;;
4106;SDS011;21906;50.812;7.132;2024-01-30T05:33:24;13.57;;;10.73;;
4106;SDS011;21906;50.812;7.132;2024-01-30T05:35:49;11.53;;;10.33;;
4106;SDS011;21906;50.812;7.132;2024-01-30T05:38:15;11.37;;;10.17;;
4106;SDS011;21906;50.812;7.132;2024-01-30T05:40:41;12.03;;;10.10;;
4106;SDS011;21906;50.812;7.132;2024-01-30T05:43:07;12.97;;;9.83;;
4106;SDS011;21906;50.812;7.132;2024-01-30T05:45:33;14.47;;;9.97;;
4106;SDS011;21906;50.812;7.132;2024-01-30T05:48:00;14.57;;;10.17;;
4106;SDS011;21906;50.812;7.132;2024-01-30T05:50:26;16.83;;;10.20;;
4106;SDS011;21906;50.812;7.132;2024-01-30T05:52:52;11.70;;;9.70;;
4106;SDS011;21906;50.812;7.132;2024-01-30T05:55:18;13.73;;;10.43;;
4106;SDS011;21906;50.812;7.132;2024-01-30T05:57:43;14.13;;;10.50;;
4106;SDS011;21906;50.812;7.132;2024-01-30T06:00:09;12.23;;;9.70;;
4106;SDS011;21906;50.812;7.132;2024-01-30T06:02:35;14.27;;;10.30;;
4106;SDS011;21906;50.812;7.132;2024-01-30T06:05:01;15.73;;;10.57;;
4106;SDS011;21906;50.812;7.132;2024-01-30T06:07:27;13.47;;;10.60;;
4106;SDS011;21906;50.812;7.132;2024-01-30T06:09:52;15.73;;;9.70;;
4106;SDS011;21906;50.812;7.132;2024-01-30T06:12:18;12.33;;;9.80;;
4106;SDS011;21906;50.812;7.132;2024-01-30T06:14:43;13.17;;;9.70;;
4106;SDS011;21906;50.812;7.132;2024-01-30T06:17:09;11.37;;;9.70;;
4106;SDS011;21906;50.812;7.132;2024-01-30T06:19:36;13.77;;;9.90;;
4106;SDS011;21906;50.812;7.132;2024-01-30T06:22:03;13.13;;;10.17;;
4106;SDS011;21906;50.812;7.132;2024-01-30T06:24:29;13.63;;;10.07;;
4106;SDS011;21906;50.812;7.132;2024-01-30T06:26:55;16.20;;;11.10;;
4106;SDS011;21906;50.812;7.132;2024-01-30T06:29:20;12.07;;;9.70;;
4106;SDS011;21906;50.812;7.132;2024-01-30T06:31:46;14.73;;;10.40;;
4106;SDS011;21906;50.812;7.132;2024-01-30T06:34:12;15.13;;;11.13;;
4106;SDS011;21906;50.812;7.132;2024-01-30T06:36:38;14.77;;;10.10;;
4106;SDS011;21906;50.812;7.132;2024-01-30T06:39:03;14.17;;;10.97;;
4106;SDS011;21906;50.812;7.132;2024-01-30T06:41:32;11.37;;;9.73;;
4106;SDS011;21906;50.812;7.132;2024-01-30T06:43:58;14.10;;;11.70;;
4106;SDS011;21906;50.812;7.132;2024-01-30T06:46:23;14.23;;;10.70;;
4106;SDS011;21906;50.812;7.132;2024-01-30T06:48:49;15.47;;;11.03;;
4106;SDS011;21906;50.812;7.132;2024-01-30T06:51:14;14.80;;;10.33;;
4106;SDS011;21906;50.812;7.132;2024-01-30T06:53:40;13.57;;;10.60;;
4106;SDS011;21906;50.812;7.132;2024-01-30T06:56:06;14.40;;;10.07;;
4106;SDS011;21906;50.812;7.132;2024-01-30T06:58:31;17.53;;;10.23;;
4106;SDS011;21906;50.812;7.132;2024-01-30T07:00:57;11.37;;;9.77;;
4106;SDS011;21906;50.812;7.132;2024-01-30T07:03:23;14.77;;;10.43;;
4106;SDS011;21906;50.812;7.132;2024-01-30T07:05:50;12.90;;;10.40;;
4106;SDS011;21906;50.812;7.132;2024-01-30T07:08:17;17.23;;;10.47;;
4106;SDS011;21906;50.812;7.132;2024-01-30T07:10:45;15.00;;;10.83;;
4106;SDS011;21906;50.812;7.132;2024-01-30T07:13:12;12.57;;;10.03;;
4106;SDS011;21906;50.812;7.132;2024-01-30T07:15:38;14.60;;;11.00;;
4106;SDS011;21906;50.812;7.132;2024-01-30T07:18:04;14.20;;;10.63;;
4106;SDS011;21906;50.812;7.132;2024-01-30T07:20:30;11.20;;;10.00;;
4106;SDS011;21906;50.812;7.132;2024-01-30T07:23:00;14.50;;;10.70;;
4106;SDS011;21906;50.812;7.132;2024-01-30T07:25:26;11.47;;;10.20;;
4106;SDS011;21906;50.812;7.132;2024-01-30T07:27:52;12.00;;;9.93;;
4106;SDS011;21906;50.812;7.132;2024-01-30T07:30:18;12.73;;;10.20;;
4106;SDS011;21906;50.812;7.132;2024-01-30T07:32:45;14.10;;;10.80;;
4106;SDS011;21906;50.812;7.132;2024-01-30T07:35:11;15.20;;;11.17;;
4106;SDS011;21906;50.812;7.132;2024-01-30T07:37:37;11.50;;;9.70;;
4106;SDS011;21906;50.812;7.132;2024-01-30T07:40:03;16.87;;;11.07;;
4106;SDS011;21906;50.812;7.132;2024-01-30T07:42:29;16.30;;;10.20;;
4106;SDS011;21906;50.812;7.132;2024-01-30T07:44:54;13.50;;;10.27;;
4106;SDS011;21906;50.812;7.132;2024-01-30T07:47:20;13.23;;;9.70;;
4106;SDS011;21906;50.812;7.132;2024-01-30T07:49:46;13.90;;;10.20;;
4106;SDS011;21906;50.812;7.132;2024-01-30T07:52:12;12.87;;;10.80;;
4106;SDS011;21906;50.812;7.132;2024-01-30T07:54:38;14.23;;;10.23;;
4106;SDS011;21906;50.812;7.132;2024-01-30T07:57:04;12.30;;;10.10;;
4106;SDS011;21906;50.812;7.132;2024-01-30T07:59:30;14.43;;;10.30;;
4106;SDS011;21906;50.812;7.132;2024-01-30T08:01:55;14.03;;;11.07;;
4106;SDS011;21906;50.812;7.132;2024-01-30T08:04:21;11.30;;;10.10;;
4106;SDS011;21906;50.812;7.132;2024-01-30T08:06:47;14.30;;;10.07;;
4106;SDS011;21906;50.812;7.132;2024-01-30T08:09:12;16.80;;;11.40;;
4106;SDS011;21906;50.812;7.132;2024-01-30T08:11:39;19.00;;;10.90;;
4106;SDS011;21906;50.812;7.132;2024-01-30T08:14:05;15.00;;;10.20;;
4106;SDS011;21906;50.812;7.132;2024-01-30T08:16:30;16.77;;;11.07;;
4106;SDS011;21906;50.812;7.132;2024-01-30T08:18:56;15.67;;;11.60;;
4106;SDS011;21906;50.812;7.132;2024-01-30T08:21:22;13.20;;;10.67;;
4106;SDS011;21906;50.812;7.132;2024-01-30T08:23:49;14.70;;;11.80;;
4106;SDS011;21906;50.812;7.132;2024-01-30T08:26:14;14.20;;;10.20;;
4106;SDS011;21906;50.812;7.132;2024-01-30T08:28:40;12.87;;;10.20;;
4106;SDS011;21906;50.812;7.132;2024-01-30T08:31:06;12.43;;;10.47;;
4106;SDS011;21906;50.812;7.132;2024-01-30T08:33:31;13.07;;;10.40;;
4106;SDS011;21906;50.812;7.132;2024-01-30T08:35:57;14.97;;;10.80;;
4106;SDS011;21906;50.812;7.132;2024-01-30T08:38:23;14.57;;;11.30;;
4106;SDS011;21906;50.812;7.132;2024-01-30T08:40:49;18.70;;;11.90;;
4106;SDS011;21906;50.812;7.132;2024-01-30T08:43:15;15.10;;;11.03;;
4106;SDS011;21906;50.812;7.132;2024-01-30T08:45:41;12.60;;;10.33;;
4106;SDS011;21906;50.812;7.132;2024-01-30T08:48:07;12.77;;;10.33;;
4106;SDS011;21906;50.812;7.132;2024-01-30T08:50:33;16.30;;;11.50;;
4106;SDS011;21906;50.812;7.132;2024-01-30T08:52:59;14.00;;;10.50;;
4106;SDS011;21906;50.812;7.132;2024-01-30T08:55:25;13.13;;;11.00;;
4106;SDS011;21906;50.812;7.132;2024-01-30T08:57:51;14.93;;;10.97;;
4106;SDS011;21906;50.812;7.132;2024-01-30T09:00:17;11.10;;;9.77;;
4106;SDS011;21906;50.812;7.132;2024-01-30T09:02:43;13.63;;;10.50;;
4106;SDS011;21906;50.812;7.132;2024-01-30T09:05:08;11.40;;;10.00;;
4106;SDS011;21906;50.812;7.132;2024-01-30T09:07:34;12.90;;;10.50;;
4106;SDS011;21906;50.812;7.132;2024-01-30T09:10:00;13.13;;;9.60;;
4106;SDS011;21906;50.812;7.132;2024-01-30T09:12:26;15.00;;;10.90;;
4106;SDS011;21906;50.812;7.132;2024-01-30T09:14:52;12.83;;;10.30;;
4106;SDS011;21906;50.812;7.132;2024-01-30T09:17:17;12.47;;;10.30;;
4106;SDS011;21906;50.812;7.132;2024-01-30T09:19:43;12.30;;;10.73;;
4106;SDS011;21906;50.812;7.132;2024-01-30T09:22:10;13.80;;;10.77;;
4106;SDS011;21906;50.812;7.132;2024-01-30T09:24:36;12.73;;;11.07;;
4106;SDS011;21906;50.812;7.132;2024-01-30T09:27:02;15.80;;;12.00;;
4106;SDS011;21906;50.812;7.132;2024-01-30T09:29:28;18.40;;;12.00;;
4106;SDS011;21906;50.812;7.132;2024-01-30T09:31:53;13.77;;;10.33;;
4106;SDS011;21906;50.812;7.132;2024-01-30T09:34:19;17.53;;;12.10;;
4106;SDS011;21906;50.812;7.132;2024-01-30T09:36:45;13.13;;;10.80;;
4106;SDS011;21906;50.812;7.132;2024-01-30T09:39:11;15.13;;;11.47;;
4106;SDS011;21906;50.812;7.132;2024-01-30T09:41:41;17.80;;;10.73;;
4106;SDS011;21906;50.812;7.132;2024-01-30T09:44:13;12.10;;;9.90;;
4106;SDS011;21906;50.812;7.132;2024-01-30T09:46:44;12.37;;;10.40;;
4106;SDS011;21906;50.812;7.132;2024-01-30T09:49:13;11.10;;;9.77;;
4106;SDS011;21906;50.812;7.132;2024-01-30T09:51:39;12.90;;;10.50;;
4106;SDS011;21906;50.812;7.132;2024-01-30T09:54:06;16.17;;;10.70;;
4106;SDS011;21906;50.812;7.132;2024-01-30T09:56:33;12.40;;;10.70;;
4106;SDS011;21906;50.812;7.132;2024-01-30T09:58:59;13.90;;;11.57;;
4106;SDS011;21906;50.812;7.132;2024-01-30T10:01:24;11.90;;;10.60;;
4106;SDS011;21906;50.812;7.132;2024-01-30T10:03:52;13.33;;;10.83;;
4106;SDS011;21906;50.812;7.132;2024-01-30T10:06:19;12.90;;;10.23;;
4106;SDS011;21906;50.812;7.132;2024-01-30T10:08:46;16.43;;;12.00;;
4106;SDS011;21906;50.812;7.132;2024-01-30T10:11:11;15.83;;;11.10;;
4106;SDS011;21906;50.812;7.132;2024-01-30T10:13:38;14.83;;;11.30;;
4106;SDS011;21906;50.812;7.132;2024-01-30T10:16:04;11.60;;;10.33;;
4106;SDS011;21906;50.812;7.132;2024-01-30T10:18:31;11.10;;;9.97;;
4106;SDS011;21906;50.812;7.132;2024-01-30T10:20:58;14.80;;;9.83;;
4106;SDS011;21906;50.812;7.132;2024-01-30T10:23:24;11.90;;;10.10;;
4106;SDS011;21906;50.812;7.132;2024-01-30T10:25:53;11.90;;;10.30;;
4106;SDS011;21906;50.812;7.132;2024-01-30T10:28:19;14.47;;;11.17;;
4106;SDS011;21906;50.812;7.132;2024-01-30T10:30:46;13.87;;;10.30;;
4106;SDS011;21906;50.812;7.132;2024-01-30T10:33:21;11.87;;;10.53;;
4106;SDS011;21906;50.812;7.132;2024-01-30T10:35:47;16.90;;;11.13;;
4106;SDS011;21906;50.812;7.132;2024-01-30T10:38:15;16.23;;;12.03;;
4106;SDS011;21906;50.812;7.132;2024-01-30T10:40:43;15.50;;;12.70;;
4106;SDS011;21906;50.812;7.132;2024-01-30T10:43:12;17.53;;;12.77;;
4106;SDS011;21906;50.812;7.132;2024-01-30T10:45:45;15.90;;;11.70;;
4106;SDS011;21906;50.812;7.132;2024-01-30T10:48:15;13.97;;;10.73;;
4106;SDS011;21906;50.812;7.132;2024-01-30T10:50:43;15.30;;;11.10;;
4106;SDS011;21906;50.812;7.132;2024-01-30T10:53:10;13.53;;;11.10;;
4106;SDS011;21906;50.812;7.132;2024-01-30T10:55:38;13.93;;;10.60;;
4106;SDS011;21906;50.812;7.132;2024-01-30T10:58:04;12.80;;;9.90;;
4106;SDS011;21906;50.812;7.132;2024-01-30T11:00:30;16.10;;;11.27;;
4106;SDS011;21906;50.812;7.132;2024-01-30T11:02:58;12.33;;;10.23;;
4106;SDS011;21906;50.812;7.132;2024-01-30T11:05:24;13.97;;;9.90;;
4106;SDS011;21906;50.812;7.132;2024-01-30T11:07:53;14.13;;;10.90;;
4106;SDS011;21906;50.812;7.132;2024-01-30T11:10:18;15.50;;;11.70;;
4106;SDS011;21906;50.812;7.132;2024-01-30T11:12:45;16.30;;;11.43;;
4106;SDS011;21906;50.812;7.132;2024-01-30T11:15:12;10.80;;;9.47;;
4106;SDS011;21906;50.812;7.132;2024-01-30T11:20:12;11.10;;;9.97;;
4106;SDS011;21906;50.812;7.132;2024-01-30T11:22:42;10.90;;;9.43;;
4106;SDS011;21906;50.812;7.132;2024-01-30T11:25:13;13.47;;;9.47;;
4106;SDS011;21906;50.812;7.132;2024-01-30T11:27:43;9.53;;;8.50;;
4106;SDS011;21906;50.812;7.132;2024-01-30T11:30:10;10.20;;;9.20;;
4106;SDS011;21906;50.812;7.132;2024-01-30T11:32:46;8.97;;;8.10;;
4106;SDS011;21906;50.812;7.132;2024-01-30T11:35:29;8.80;;;7.93;;
4106;SDS011;21906;50.812;7.132;2024-01-30T11:38:00;11.03;;;8.37;;
4106;SDS011;21906;50.812;7.132;2024-01-30T11:40:27;10.70;;;9.13;;
4106;SDS011;21906;50.812;7.132;2024-01-30T11:42:54;10.10;;;7.80;;
4106;SDS011;21906;50.812;7.132;2024-01-30T11:45:20;8.07;;;7.27;;
4106;SDS011;21906;50.812;7.132;2024-01-30T11:47:46;8.73;;;7.93;;
4106;SDS011;21906;50.812;7.132;2024-01-30T11:50:12;9.70;;;8.20;;
4106;SDS011;21906;50.812;7.132;2024-01-30T11:52:39;9.40;;;8.50;;
4106;SDS011;21906;50.812;7.132;2024-01-30T11:55:05;9.17;;;8.27;;
4106;SDS011;21906;50.812;7.132;2024-01-30T11:57:33;9.40;;;8.10;;
4106;SDS011;21906;50.812;7.132;2024-01-30T12:00:01;11.57;;;9.00;;
4106;SDS011;21906;50.812;7.132;2024-01-30T12:02:29;9.60;;;8.67;;
4106;SDS011;21906;50.812;7.132;2024-01-30T12:04:55;8.83;;;7.93;;
4106;SDS011;21906;50.812;7.132;2024-01-30T12:07:21;9.50;;;8.60;;
4106;SDS011;21906;50.812;7.132;2024-01-30T12:09:53;10.13;;;8.10;;
4106;SDS011;21906;50.812;7.132;2024-01-30T12:12:21;10.03;;;8.03;;
4106;SDS011;21906;50.812;7.132;2024-01-30T12:14:49;12.27;;;8.40;;
4106;SDS011;21906;50.812;7.132;2024-01-30T12:17:30;9.63;;;8.63;;
4106;SDS011;21906;50.812;7.132;2024-01-30T12:22:31;10.80;;;8.87;;
4106;SDS011;21906;50.812;7.132;2024-01-30T12:25:08;8.70;;;7.93;;
4106;SDS011;21906;50.812;7.132;2024-01-30T12:27:38;9.33;;;7.80;;
4106;SDS011;21906;50.812;7.132;2024-01-30T12:30:14;8.97;;;7.47;;
4106;SDS011;21906;50.812;7.132;2024-01-30T12:32:43;8.27;;;7.47;;
4106;SDS011;21906;50.812;7.132;2024-01-30T12:35:12;9.43;;;7.80;;
4106;SDS011;21906;50.812;7.132;2024-01-30T12:37:40;8.60;;;7.43;;
4106;SDS011;21906;50.812;7.132;2024-01-30T12:40:07;9.97;;;8.07;;
4106;SDS011;21906;50.812;7.132;2024-01-30T12:42:33;8.90;;;7.50;;
4106;SDS011;21906;50.812;7.132;2024-01-30T12:44:59;8.03;;;7.20;;
4106;SDS011;21906;50.812;7.132;2024-01-30T12:47:25;9.57;;;8.03;;
4106;SDS011;21906;50.812;7.132;2024-01-30T12:49:51;11.80;;;7.57;;
4106;SDS011;21906;50.812;7.132;2024-01-30T12:52:18;9.83;;;8.33;;
4106;SDS011;21906;50.812;7.132;2024-01-30T12:54:46;8.57;;;7.50;;
4106;SDS011;21906;50.812;7.132;2024-01-30T12:57:11;8.63;;;7.83;;
4106;SDS011;21906;50.812;7.132;2024-01-30T12:59:37;9.63;;;8.63;;
4106;SDS011;21906;50.812;7.132;2024-01-30T13:02:04;8.07;;;7.27;;
4106;SDS011;21906;50.812;7.132;2024-01-30T13:04:30;10.07;;;7.53;;
4106;SDS011;21906;50.812;7.132;2024-01-30T13:06:56;10.40;;;8.30;;
4106;SDS011;21906;50.812;7.132;2024-01-30T13:09:23;9.27;;;7.47;;
4106;SDS011;21906;50.812;7.132;2024-01-30T13:11:49;8.90;;;7.77;;
4106;SDS011;21906;50.812;7.132;2024-01-30T13:14:16;11.97;;;7.73;;
4106;SDS011;21906;50.812;7.132;2024-01-30T13:16:42;9.93;;;8.33;;
4106;SDS011;21906;50.812;7.132;2024-01-30T13:19:08;9.67;;;7.90;;
4106;SDS011;21906;50.812;7.132;2024-01-30T13:21:34;8.30;;;7.33;;
4106;SDS011;21906;50.812;7.132;2024-01-30T13:24:00;9.33;;;7.80;;
4106;SDS011;21906;50.812;7.132;2024-01-30T13:26:26;9.13;;;8.10;;
4106;SDS011;21906;50.812;7.132;2024-01-30T13:28:52;8.80;;;7.97;;
4106;SDS011;21906;50.812;7.132;2024-01-30T13:31:17;13.30;;;9.30;;
4106;SDS011;21906;50.812;7.132;2024-01-30T13:33:44;11.07;;;9.03;;
4106;SDS011;21906;50.812;7.132;2024-01-30T13:36:10;10.30;;;8.90;;
4106;SDS011;21906;50.812;7.132;2024-01-30T13:38:37;9.03;;;8.13;;
4106;SDS011;21906;50.812;7.132;2024-01-30T13:41:04;10.33;;;8.73;;
4106;SDS011;21906;50.812;7.132;2024-01-30T13:43:30;12.10;;;8.80;;
4106;SDS011;21906;50.812;7.132;2024-01-30T13:45:56;9.93;;;8.87;;
4106;SDS011;21906;50.812;7.132;2024-01-30T13:48:22;10.20;;;9.13;;
4106;SDS011;21906;50.812;7.132;2024-01-30T13:50:47;10.00;;;9.00;;
4106;SDS011;21906;50.812;7.132;2024-01-30T13:53:13;10.87;;;9.37;;
4106;SDS011;21906;50.812;7.132;2024-01-30T13:55:39;10.57;;;8.87;;
4106;SDS011;21906;50.812;7.132;2024-01-30T13:58:05;10.40;;;8.30;;
4106;SDS011;21906;50.812;7.132;2024-01-30T14:00:32;11.70;;;9.40;;
4106;SDS011;21906;50.812;7.132;2024-01-30T14:02:58;10.47;;;9.30;;
4106;SDS011;21906;50.812;7.132;2024-01-30T14:05:24;11.33;;;9.20;;
4106;SDS011;21906;50.812;7.132;2024-01-30T14:07:52;10.57;;;9.10;;
4106;SDS011;21906;50.812;7.132;2024-01-30T14:10:18;10.47;;;9.37;;
4106;SDS011;21906;50.812;7.132;2024-01-30T14:12:44;12.53;;;9.30;;
4106;SDS011;21906;50.812;7.132;2024-01-30T14:15:13;10.13;;;8.90;;
4106;SDS011;21906;50.812;7.132;2024-01-30T14:17:46;12.03;;;9.27;;
4106;SDS011;21906;50.812;7.132;2024-01-30T14:20:14;11.07;;;9.60;;
4106;SDS011;21906;50.812;7.132;2024-01-30T14:22:43;10.10;;;9.13;;
4106;SDS011;21906;50.812;7.132;2024-01-30T14:25:09;11.00;;;8.87;;
4106;SDS011;21906;50.812;7.132;2024-01-30T14:27:35;10.93;;;9.40;;
4106;SDS011;21906;50.812;7.132;2024-01-30T14:30:01;10.03;;;8.97;;
4106;SDS011;21906;50.812;7.132;2024-01-30T14:32:28;11.13;;;9.17;;
4106;SDS011;21906;50.812;7.132;2024-01-30T14:34:54;10.60;;;9.50;;
4106;SDS011;21906;50.812;7.132;2024-01-30T14:37:20;10.57;;;9.07;;
4106;SDS011;21906;50.812;7.132;2024-01-30T14:39:47;10.00;;;8.87;;
4106;SDS011;21906;50.812;7.132;2024-01-30T14:42:16;13.53;;;9.90;;